sensor_id;sensor_type;location;lat;lon;timestamp;P1;durP1;ratioP1;P2;durP2;ratioP2
59846;SDS011;45728;48.788;2.302;2023-05-10T00:00:39;7.32;;;2.45;;
59846;SDS011;45728;48.788;2.302;2023-05-10T00:03:05;6.53;;;2.50;;
59846;SDS011;45728;48.788;2.302;2023-05-10T00:05:31;12.15;;;2.95;;
59846;SDS011;45728;48.788;2.302;2023-05-10T00:07:57;7.55;;;2.53;;
59846;SDS011;45728;48.788;2.302;2023-05-10T00:10:24;8.45;;;2.28;;
59846;SDS011;45728;48.788;2.302;2023-05-10T00:12:50;5.97;;;1.90;;
59846;SDS011;45728;48.788;2.302;2023-05-10T00:15:16;8.50;;;2.03;;
59846;SDS011;45728;48.788;2.302;2023-05-10T00:17:42;6.57;;;2.10;;
59846;SDS011;45728;48.788;2.302;2023-05-10T00:20:08;7.68;;;1.90;;
59846;SDS011;45728;48.788;2.302;2023-05-10T00:22:35;7.55;;;2.00;;
59846;SDS011;45728;48.788;2.302;2023-05-10T00:25:01;7.13;;;2.05;;
59846;SDS011;45728;48.788;2.302;2023-05-10T00:27:27;5.40;;;1.73;;
59846;SDS011;45728;48.788;2.302;2023-05-10T00:29:53;7.82;;;1.80;;
59846;SDS011;45728;48.788;2.302;2023-05-10T00:32:19;6.28;;;1.80;;
59846;SDS011;45728;48.788;2.302;2023-05-10T00:34:45;9.15;;;2.17;;
59846;SDS011;45728;48.788;2.302;2023-05-10T00:37:11;9.63;;;1.77;;
59846;SDS011;45728;48.788;2.302;2023-05-10T00:39:38;5.38;;;1.80;;
59846;SDS011;45728;48.788;2.302;2023-05-10T00:42:04;6.13;;;1.90;;
59846;SDS011;45728;48.788;2.302;2023-05-10T00:44:30;5.03;;;1.60;;
59846;SDS011;45728;48.788;2.302;2023-05-10T00:46:56;8.70;;;2.05;;
59846;SDS011;45728;48.788;2.302;2023-05-10T00:49:23;7.63;;;1.83;;
59846;SDS011;45728;48.788;2.302;2023-05-10T00:51:49;7.88;;;1.58;;
59846;SDS011;45728;48.788;2.302;2023-05-10T00:54:15;6.03;;;1.58;;
59846;SDS011;45728;48.788;2.302;2023-05-10T00:56:41;6.07;;;1.55;;
59846;SDS011;45728;48.788;2.302;2023-05-10T00:59:14;5.53;;;1.90;;
59846;SDS011;45728;48.788;2.302;2023-05-10T01:04:10;5.63;;;1.55;;
59846;SDS011;45728;48.788;2.302;2023-05-10T01:06:38;4.93;;;1.42;;
59846;SDS011;45728;48.788;2.302;2023-05-10T01:09:05;6.57;;;1.50;;
59846;SDS011;45728;48.788;2.302;2023-05-10T01:11:33;7.97;;;1.70;;
59846;SDS011;45728;48.788;2.302;2023-05-10T01:14:00;2.97;;;1.27;;
59846;SDS011;45728;48.788;2.302;2023-05-10T01:16:27;5.05;;;1.55;;
59846;SDS011;45728;48.788;2.302;2023-05-10T01:18:59;5.47;;;1.25;;
59846;SDS011;45728;48.788;2.302;2023-05-10T01:32:11;5.70;;;1.60;;
59846;SDS011;45728;48.788;2.302;2023-05-10T01:34:45;5.35;;;1.42;;
59846;SDS011;45728;48.788;2.302;2023-05-10T01:37:15;4.88;;;1.70;;
59846;SDS011;45728;48.788;2.302;2023-05-10T01:39:55;6.43;;;1.70;;
59846;SDS011;45728;48.788;2.302;2023-05-10T01:42:33;6.45;;;1.45;;
59846;SDS011;45728;48.788;2.302;2023-05-10T01:45:39;4.70;;;1.13;;
59846;SDS011;45728;48.788;2.302;2023-05-10T01:48:08;6.53;;;1.70;;
59846;SDS011;45728;48.788;2.302;2023-05-10T01:50:37;5.55;;;1.27;;
59846;SDS011;45728;48.788;2.302;2023-05-10T01:53:07;6.55;;;1.70;;
59846;SDS011;45728;48.788;2.302;2023-05-10T01:55:39;3.60;;;1.20;;
59846;SDS011;45728;48.788;2.302;2023-05-10T01:58:17;5.22;;;1.48;;
59846;SDS011;45728;48.788;2.302;2023-05-10T02:00:49;2.92;;;1.30;;
59846;SDS011;45728;48.788;2.302;2023-05-10T02:03:18;6.20;;;1.67;;
59846;SDS011;45728;48.788;2.302;2023-05-10T02:05:48;5.10;;;1.10;;
59846;SDS011;45728;48.788;2.302;2023-05-10T02:08:16;4.93;;;1.40;;
59846;SDS011;45728;48.788;2.302;2023-05-10T02:10:44;3.78;;;1.15;;
59846;SDS011;45728;48.788;2.302;2023-05-10T02:13:12;3.60;;;1.30;;
59846;SDS011;45728;48.788;2.302;2023-05-10T02:15:40;4.13;;;1.40;;
59846;SDS011;45728;48.788;2.302;2023-05-10T02:18:08;2.60;;;1.00;;
59846;SDS011;45728;48.788;2.302;2023-05-10T02:20:36;3.28;;;1.33;;
59846;SDS011;45728;48.788;2.302;2023-05-10T02:23:03;3.88;;;1.25;;
59846;SDS011;45728;48.788;2.302;2023-05-10T02:25:31;4.40;;;1.10;;
59846;SDS011;45728;48.788;2.302;2023-05-10T02:27:58;7.22;;;1.60;;
59846;SDS011;45728;48.788;2.302;2023-05-10T02:30:26;5.63;;;1.53;;
59846;SDS011;45728;48.788;2.302;2023-05-10T02:32:54;5.68;;;1.38;;
59846;SDS011;45728;48.788;2.302;2023-05-10T02:35:21;3.35;;;0.93;;
59846;SDS011;45728;48.788;2.302;2023-05-10T02:37:48;2.53;;;1.08;;
59846;SDS011;45728;48.788;2.302;2023-05-10T02:40:16;4.78;;;1.45;;
59846;SDS011;45728;48.788;2.302;2023-05-10T02:42:45;5.20;;;1.05;;
59846;SDS011;45728;48.788;2.302;2023-05-10T02:45:15;5.18;;;1.30;;
59846;SDS011;45728;48.788;2.302;2023-05-10T02:47:44;4.88;;;1.25;;
59846;SDS011;45728;48.788;2.302;2023-05-10T02:50:10;4.05;;;1.10;;
59846;SDS011;45728;48.788;2.302;2023-05-10T02:52:39;4.65;;;1.27;;
59846;SDS011;45728;48.788;2.302;2023-05-10T02:55:09;3.80;;;1.30;;
59846;SDS011;45728;48.788;2.302;2023-05-10T02:57:38;5.20;;;1.15;;
59846;SDS011;45728;48.788;2.302;2023-05-10T03:00:08;4.10;;;1.08;;
59846;SDS011;45728;48.788;2.302;2023-05-10T03:02:35;2.70;;;1.20;;
59846;SDS011;45728;48.788;2.302;2023-05-10T03:05:01;5.00;;;1.58;;
59846;SDS011;45728;48.788;2.302;2023-05-10T03:07:28;5.68;;;1.42;;
59846;SDS011;45728;48.788;2.302;2023-05-10T03:09:55;3.03;;;1.23;;
59846;SDS011;45728;48.788;2.302;2023-05-10T03:15:11;5.55;;;1.30;;
59846;SDS011;45728;48.788;2.302;2023-05-10T03:20:16;4.80;;;1.38;;
59846;SDS011;45728;48.788;2.302;2023-05-10T03:22:51;5.75;;;1.20;;
59846;SDS011;45728;48.788;2.302;2023-05-10T03:25:23;2.65;;;1.15;;
59846;SDS011;45728;48.788;2.302;2023-05-10T03:27:50;3.80;;;1.45;;
59846;SDS011;45728;48.788;2.302;2023-05-10T03:30:17;3.05;;;0.95;;
59846;SDS011;45728;48.788;2.302;2023-05-10T03:32:44;5.95;;;1.10;;
59846;SDS011;45728;48.788;2.302;2023-05-10T03:35:11;4.07;;;1.23;;
59846;SDS011;45728;48.788;2.302;2023-05-10T03:37:38;5.30;;;1.30;;
59846;SDS011;45728;48.788;2.302;2023-05-10T03:40:05;4.13;;;1.23;;
59846;SDS011;45728;48.788;2.302;2023-05-10T03:42:32;5.72;;;1.42;;
59846;SDS011;45728;48.788;2.302;2023-05-10T03:44:58;4.68;;;1.60;;
59846;SDS011;45728;48.788;2.302;2023-05-10T03:47:24;3.53;;;1.15;;
59846;SDS011;45728;48.788;2.302;2023-05-10T03:49:50;3.67;;;1.60;;
59846;SDS011;45728;48.788;2.302;2023-05-10T03:52:17;5.75;;;1.48;;
59846;SDS011;45728;48.788;2.302;2023-05-10T03:54:43;3.60;;;1.20;;
59846;SDS011;45728;48.788;2.302;2023-05-10T03:57:09;4.03;;;1.45;;
59846;SDS011;45728;48.788;2.302;2023-05-10T03:59:35;5.72;;;1.77;;
59846;SDS011;45728;48.788;2.302;2023-05-10T04:02:01;3.13;;;1.20;;
59846;SDS011;45728;48.788;2.302;2023-05-10T04:04:28;5.38;;;1.50;;
59846;SDS011;45728;48.788;2.302;2023-05-10T04:06:54;3.70;;;1.40;;
59846;SDS011;45728;48.788;2.302;2023-05-10T04:09:20;3.75;;;1.13;;
59846;SDS011;45728;48.788;2.302;2023-05-10T04:11:46;5.72;;;1.52;;
59846;SDS011;45728;48.788;2.302;2023-05-10T04:14:12;4.25;;;1.30;;
59846;SDS011;45728;48.788;2.302;2023-05-10T04:16:38;2.75;;;1.00;;
59846;SDS011;45728;48.788;2.302;2023-05-10T04:19:04;4.25;;;1.45;;
59846;SDS011;45728;48.788;2.302;2023-05-10T04:21:30;4.53;;;1.33;;
59846;SDS011;45728;48.788;2.302;2023-05-10T04:23:56;2.47;;;1.27;;
59846;SDS011;45728;48.788;2.302;2023-05-10T04:26:23;4.47;;;1.58;;
59846;SDS011;45728;48.788;2.302;2023-05-10T04:28:50;3.17;;;1.50;;
59846;SDS011;45728;48.788;2.302;2023-05-10T04:31:16;5.60;;;1.42;;
59846;SDS011;45728;48.788;2.302;2023-05-10T04:33:42;3.60;;;1.40;;
59846;SDS011;45728;48.788;2.302;2023-05-10T04:36:08;4.07;;;1.35;;
59846;SDS011;45728;48.788;2.302;2023-05-10T04:38:34;4.22;;;1.55;;
59846;SDS011;45728;48.788;2.302;2023-05-10T04:41:04;4.00;;;1.33;;
59846;SDS011;45728;48.788;2.302;2023-05-10T04:43:31;4.97;;;1.38;;
59846;SDS011;45728;48.788;2.302;2023-05-10T04:45:58;4.65;;;1.63;;
59846;SDS011;45728;48.788;2.302;2023-05-10T04:48:24;5.22;;;1.50;;
59846;SDS011;45728;48.788;2.302;2023-05-10T04:50:50;6.25;;;1.35;;
59846;SDS011;45728;48.788;2.302;2023-05-10T04:53:16;2.60;;;1.35;;
59846;SDS011;45728;48.788;2.302;2023-05-10T04:55:42;3.65;;;1.50;;
59846;SDS011;45728;48.788;2.302;2023-05-10T04:58:08;4.18;;;1.42;;
59846;SDS011;45728;48.788;2.302;2023-05-10T05:00:34;3.42;;;1.20;;
59846;SDS011;45728;48.788;2.302;2023-05-10T05:03:00;5.25;;;1.75;;
59846;SDS011;45728;48.788;2.302;2023-05-10T05:05:26;4.28;;;1.55;;
59846;SDS011;45728;48.788;2.302;2023-05-10T05:07:52;5.10;;;1.60;;
59846;SDS011;45728;48.788;2.302;2023-05-10T05:10:18;4.05;;;1.33;;
59846;SDS011;45728;48.788;2.302;2023-05-10T05:12:44;3.15;;;1.48;;
59846;SDS011;45728;48.788;2.302;2023-05-10T05:15:11;5.15;;;1.70;;
59846;SDS011;45728;48.788;2.302;2023-05-10T05:17:37;2.47;;;1.40;;
59846;SDS011;45728;48.788;2.302;2023-05-10T05:20:03;2.58;;;1.50;;
59846;SDS011;45728;48.788;2.302;2023-05-10T05:22:29;2.75;;;1.25;;
59846;SDS011;45728;48.788;2.302;2023-05-10T05:24:56;4.55;;;1.63;;
59846;SDS011;45728;48.788;2.302;2023-05-10T05:27:23;4.28;;;1.70;;
59846;SDS011;45728;48.788;2.302;2023-05-10T05:29:54;4.90;;;1.70;;
59846;SDS011;45728;48.788;2.302;2023-05-10T05:32:22;4.82;;;1.67;;
59846;SDS011;45728;48.788;2.302;2023-05-10T05:34:48;3.45;;;1.52;;
59846;SDS011;45728;48.788;2.302;2023-05-10T05:37:15;4.18;;;1.80;;
59846;SDS011;45728;48.788;2.302;2023-05-10T05:39:42;4.65;;;2.03;;
59846;SDS011;45728;48.788;2.302;2023-05-10T05:42:09;4.68;;;1.90;;
59846;SDS011;45728;48.788;2.302;2023-05-10T05:44:35;4.95;;;1.88;;
59846;SDS011;45728;48.788;2.302;2023-05-10T05:47:02;4.55;;;2.00;;
59846;SDS011;45728;48.788;2.302;2023-05-10T05:49:28;5.82;;;2.00;;
59846;SDS011;45728;48.788;2.302;2023-05-10T05:51:54;6.90;;;2.42;;
59846;SDS011;45728;48.788;2.302;2023-05-10T05:54:20;6.18;;;2.30;;
59846;SDS011;45728;48.788;2.302;2023-05-10T05:56:46;5.30;;;1.73;;
59846;SDS011;45728;48.788;2.302;2023-05-10T05:59:12;5.75;;;1.92;;
59846;SDS011;45728;48.788;2.302;2023-05-10T06:01:38;6.47;;;2.40;;
59846;SDS011;45728;48.788;2.302;2023-05-10T06:04:04;6.65;;;2.38;;
59846;SDS011;45728;48.788;2.302;2023-05-10T06:06:30;5.18;;;2.47;;
59846;SDS011;45728;48.788;2.302;2023-05-10T06:08:57;7.00;;;2.67;;
59846;SDS011;45728;48.788;2.302;2023-05-10T06:11:23;4.88;;;2.38;;
59846;SDS011;45728;48.788;2.302;2023-05-10T06:13:50;5.07;;;2.55;;
59846;SDS011;45728;48.788;2.302;2023-05-10T06:16:16;7.50;;;2.20;;
59846;SDS011;45728;48.788;2.302;2023-05-10T06:18:43;6.68;;;2.63;;
59846;SDS011;45728;48.788;2.302;2023-05-10T06:21:09;4.93;;;2.00;;
59846;SDS011;45728;48.788;2.302;2023-05-10T06:23:35;4.30;;;2.25;;
59846;SDS011;45728;48.788;2.302;2023-05-10T06:26:01;9.32;;;3.17;;
59846;SDS011;45728;48.788;2.302;2023-05-10T06:28:27;8.73;;;2.90;;
59846;SDS011;45728;48.788;2.302;2023-05-10T06:30:53;5.57;;;2.67;;
59846;SDS011;45728;48.788;2.302;2023-05-10T06:33:19;5.07;;;2.38;;
59846;SDS011;45728;48.788;2.302;2023-05-10T06:35:45;7.82;;;2.90;;
59846;SDS011;45728;48.788;2.302;2023-05-10T06:38:11;6.07;;;2.63;;
59846;SDS011;45728;48.788;2.302;2023-05-10T06:40:40;5.63;;;2.55;;
59846;SDS011;45728;48.788;2.302;2023-05-10T06:43:07;5.10;;;3.00;;
59846;SDS011;45728;48.788;2.302;2023-05-10T06:45:33;7.35;;;3.38;;
59846;SDS011;45728;48.788;2.302;2023-05-10T06:47:59;8.02;;;3.10;;
59846;SDS011;45728;48.788;2.302;2023-05-10T06:50:26;6.97;;;3.20;;
59846;SDS011;45728;48.788;2.302;2023-05-10T06:52:52;5.65;;;3.00;;
59846;SDS011;45728;48.788;2.302;2023-05-10T06:55:18;5.78;;;2.97;;
59846;SDS011;45728;48.788;2.302;2023-05-10T06:57:45;4.82;;;3.10;;
59846;SDS011;45728;48.788;2.302;2023-05-10T07:00:11;6.93;;;2.85;;
59846;SDS011;45728;48.788;2.302;2023-05-10T07:02:37;6.30;;;2.95;;
59846;SDS011;45728;48.788;2.302;2023-05-10T07:05:03;6.72;;;2.95;;
59846;SDS011;45728;48.788;2.302;2023-05-10T07:07:30;8.18;;;2.75;;
59846;SDS011;45728;48.788;2.302;2023-05-10T07:09:56;6.53;;;2.60;;
59846;SDS011;45728;48.788;2.302;2023-05-10T07:12:23;6.40;;;2.40;;
59846;SDS011;45728;48.788;2.302;2023-05-10T07:14:50;4.82;;;2.20;;
59846;SDS011;45728;48.788;2.302;2023-05-10T07:17:16;5.70;;;2.40;;
59846;SDS011;45728;48.788;2.302;2023-05-10T07:19:42;5.82;;;2.35;;
59846;SDS011;45728;48.788;2.302;2023-05-10T07:22:08;4.47;;;2.28;;
59846;SDS011;45728;48.788;2.302;2023-05-10T07:24:34;6.78;;;2.30;;
59846;SDS011;45728;48.788;2.302;2023-05-10T07:27:00;2.50;;;1.95;;
59846;SDS011;45728;48.788;2.302;2023-05-10T07:29:27;4.78;;;1.98;;
59846;SDS011;45728;48.788;2.302;2023-05-10T07:31:53;5.88;;;1.90;;
59846;SDS011;45728;48.788;2.302;2023-05-10T07:34:19;6.25;;;2.45;;
59846;SDS011;45728;48.788;2.302;2023-05-10T07:36:45;5.07;;;1.85;;
59846;SDS011;45728;48.788;2.302;2023-05-10T07:39:12;3.58;;;1.95;;
59846;SDS011;45728;48.788;2.302;2023-05-10T07:41:38;4.78;;;2.10;;
59846;SDS011;45728;48.788;2.302;2023-05-10T07:44:04;3.72;;;2.08;;
59846;SDS011;45728;48.788;2.302;2023-05-10T07:46:31;3.35;;;2.05;;
59846;SDS011;45728;48.788;2.302;2023-05-10T07:48:57;3.40;;;1.80;;
59846;SDS011;45728;48.788;2.302;2023-05-10T07:51:23;3.25;;;2.25;;
59846;SDS011;45728;48.788;2.302;2023-05-10T07:53:49;4.25;;;2.30;;
59846;SDS011;45728;48.788;2.302;2023-05-10T07:56:26;4.85;;;2.00;;
59846;SDS011;45728;48.788;2.302;2023-05-10T07:58:55;4.63;;;2.53;;
59846;SDS011;45728;48.788;2.302;2023-05-10T08:01:21;3.88;;;2.92;;
59846;SDS011;45728;48.788;2.302;2023-05-10T08:03:48;4.30;;;2.60;;
59846;SDS011;45728;48.788;2.302;2023-05-10T08:06:14;5.18;;;3.05;;
59846;SDS011;45728;48.788;2.302;2023-05-10T08:08:42;6.90;;;2.88;;
59846;SDS011;45728;48.788;2.302;2023-05-10T08:11:08;4.70;;;2.72;;
59846;SDS011;45728;48.788;2.302;2023-05-10T08:13:34;4.25;;;2.60;;
59846;SDS011;45728;48.788;2.302;2023-05-10T08:16:00;5.07;;;2.70;;
59846;SDS011;45728;48.788;2.302;2023-05-10T08:18:26;4.60;;;2.65;;
59846;SDS011;45728;48.788;2.302;2023-05-10T08:20:53;5.85;;;2.50;;
59846;SDS011;45728;48.788;2.302;2023-05-10T08:23:19;4.50;;;2.38;;
59846;SDS011;45728;48.788;2.302;2023-05-10T08:25:45;3.65;;;2.15;;
59846;SDS011;45728;48.788;2.302;2023-05-10T08:28:11;3.97;;;2.22;;
59846;SDS011;45728;48.788;2.302;2023-05-10T08:30:37;4.68;;;2.17;;
59846;SDS011;45728;48.788;2.302;2023-05-10T08:33:03;3.45;;;1.80;;
59846;SDS011;45728;48.788;2.302;2023-05-10T08:35:29;3.78;;;1.83;;
59846;SDS011;45728;48.788;2.302;2023-05-10T08:37:55;4.22;;;2.10;;
59846;SDS011;45728;48.788;2.302;2023-05-10T08:40:21;5.15;;;2.45;;
59846;SDS011;45728;48.788;2.302;2023-05-10T08:42:59;4.43;;;2.30;;
59846;SDS011;45728;48.788;2.302;2023-05-10T08:45:38;4.03;;;2.00;;
59846;SDS011;45728;48.788;2.302;2023-05-10T08:48:07;6.03;;;2.22;;
59846;SDS011;45728;48.788;2.302;2023-05-10T08:50:35;8.00;;;2.97;;
59846;SDS011;45728;48.788;2.302;2023-05-10T08:53:11;4.03;;;2.30;;
59846;SDS011;45728;48.788;2.302;2023-05-10T08:55:39;6.10;;;2.47;;
59846;SDS011;45728;48.788;2.302;2023-05-10T08:58:07;6.78;;;2.75;;
59846;SDS011;45728;48.788;2.302;2023-05-10T09:00:34;9.10;;;3.20;;
59846;SDS011;45728;48.788;2.302;2023-05-10T09:03:02;8.13;;;3.25;;
59846;SDS011;45728;48.788;2.302;2023-05-10T09:05:30;9.43;;;3.38;;
59846;SDS011;45728;48.788;2.302;2023-05-10T09:07:57;11.23;;;3.78;;
59846;SDS011;45728;48.788;2.302;2023-05-10T09:10:25;12.27;;;3.55;;
59846;SDS011;45728;48.788;2.302;2023-05-10T09:12:53;13.75;;;4.32;;
59846;SDS011;45728;48.788;2.302;2023-05-10T09:15:22;10.53;;;4.07;;
59846;SDS011;45728;48.788;2.302;2023-05-10T09:17:48;12.43;;;4.50;;
59846;SDS011;45728;48.788;2.302;2023-05-10T09:20:15;12.80;;;4.18;;
59846;SDS011;45728;48.788;2.302;2023-05-10T09:22:42;15.30;;;4.60;;
59846;SDS011;45728;48.788;2.302;2023-05-10T09:25:10;9.38;;;3.88;;
59846;SDS011;45728;48.788;2.302;2023-05-10T09:27:38;16.70;;;4.93;;
59846;SDS011;45728;48.788;2.302;2023-05-10T09:30:10;16.10;;;4.85;;
59846;SDS011;45728;48.788;2.302;2023-05-10T09:32:51;14.18;;;5.30;;
59846;SDS011;45728;48.788;2.302;2023-05-10T09:35:18;19.83;;;5.55;;
59846;SDS011;45728;48.788;2.302;2023-05-10T11:04:43;13.38;;;5.30;;
59846;SDS011;45728;48.788;2.302;2023-05-10T11:07:18;19.40;;;5.25;;
59846;SDS011;45728;48.788;2.302;2023-05-10T11:09:46;19.77;;;5.13;;
59846;SDS011;45728;48.788;2.302;2023-05-10T11:12:12;14.57;;;4.90;;
59846;SDS011;45728;48.788;2.302;2023-05-10T11:14:39;17.35;;;4.72;;
59846;SDS011;45728;48.788;2.302;2023-05-10T11:20:11;16.65;;;4.88;;
59846;SDS011;45728;48.788;2.302;2023-05-10T11:22:49;12.43;;;4.78;;
59846;SDS011;45728;48.788;2.302;2023-05-10T11:25:19;15.25;;;4.47;;
59846;SDS011;45728;48.788;2.302;2023-05-10T11:27:47;13.85;;;4.65;;
59846;SDS011;45728;48.788;2.302;2023-05-10T11:30:14;18.33;;;5.10;;
59846;SDS011;45728;48.788;2.302;2023-05-10T11:32:40;15.52;;;5.20;;
59846;SDS011;45728;48.788;2.302;2023-05-10T11:35:15;14.00;;;5.13;;
59846;SDS011;45728;48.788;2.302;2023-05-10T11:37:41;15.05;;;4.82;;
59846;SDS011;45728;48.788;2.302;2023-05-10T11:40:09;13.30;;;4.50;;
59846;SDS011;45728;48.788;2.302;2023-05-10T11:42:36;13.52;;;4.25;;
59846;SDS011;45728;48.788;2.302;2023-05-10T11:45:03;13.88;;;4.07;;
59846;SDS011;45728;48.788;2.302;2023-05-10T11:47:29;13.32;;;4.15;;
59846;SDS011;45728;48.788;2.302;2023-05-10T11:49:55;13.55;;;4.18;;
59846;SDS011;45728;48.788;2.302;2023-05-10T11:52:22;14.63;;;4.30;;
59846;SDS011;45728;48.788;2.302;2023-05-10T11:54:52;13.02;;;4.93;;
59846;SDS011;45728;48.788;2.302;2023-05-10T11:57:20;12.93;;;4.65;;
59846;SDS011;45728;48.788;2.302;2023-05-10T11:59:47;10.10;;;4.72;;
59846;SDS011;45728;48.788;2.302;2023-05-10T12:02:13;12.63;;;4.40;;
59846;SDS011;45728;48.788;2.302;2023-05-10T12:04:39;12.27;;;4.95;;
59846;SDS011;45728;48.788;2.302;2023-05-10T12:07:06;11.80;;;4.53;;
59846;SDS011;45728;48.788;2.302;2023-05-10T12:09:32;14.48;;;6.75;;
59846;SDS011;45728;48.788;2.302;2023-05-10T12:11:58;11.02;;;4.53;;
59846;SDS011;45728;48.788;2.302;2023-05-10T12:14:24;12.48;;;4.18;;
59846;SDS011;45728;48.788;2.302;2023-05-10T12:16:50;10.98;;;4.40;;
59846;SDS011;45728;48.788;2.302;2023-05-10T12:19:19;15.18;;;4.38;;
59846;SDS011;45728;48.788;2.302;2023-05-10T12:21:48;8.38;;;3.75;;
59846;SDS011;45728;48.788;2.302;2023-05-10T12:24:14;9.68;;;3.53;;
59846;SDS011;45728;48.788;2.302;2023-05-10T12:26:44;10.83;;;4.50;;
59846;SDS011;45728;48.788;2.302;2023-05-10T12:29:14;10.57;;;4.07;;
59846;SDS011;45728;48.788;2.302;2023-05-10T12:31:52;12.15;;;4.28;;
59846;SDS011;45728;48.788;2.302;2023-05-10T12:34:23;8.85;;;4.13;;
59846;SDS011;45728;48.788;2.302;2023-05-10T12:36:51;8.82;;;4.80;;
59846;SDS011;45728;48.788;2.302;2023-05-10T12:39:18;11.63;;;5.38;;
59846;SDS011;45728;48.788;2.302;2023-05-10T12:41:45;11.27;;;4.78;;
59846;SDS011;45728;48.788;2.302;2023-05-10T12:44:11;10.30;;;5.13;;
59846;SDS011;45728;48.788;2.302;2023-05-10T12:46:37;15.38;;;4.72;;
59846;SDS011;45728;48.788;2.302;2023-05-10T12:49:03;11.35;;;4.47;;
59846;SDS011;45728;48.788;2.302;2023-05-10T12:51:29;9.23;;;4.80;;
59846;SDS011;45728;48.788;2.302;2023-05-10T12:53:56;9.95;;;4.22;;
59846;SDS011;45728;48.788;2.302;2023-05-10T12:56:22;10.13;;;4.30;;
59846;SDS011;45728;48.788;2.302;2023-05-10T12:58:48;10.32;;;4.93;;
59846;SDS011;45728;48.788;2.302;2023-05-10T13:01:14;9.20;;;4.25;;
59846;SDS011;45728;48.788;2.302;2023-05-10T13:03:40;11.52;;;4.63;;
59846;SDS011;45728;48.788;2.302;2023-05-10T13:06:06;11.85;;;4.18;;
59846;SDS011;45728;48.788;2.302;2023-05-10T13:08:32;12.43;;;4.72;;
59846;SDS011;45728;48.788;2.302;2023-05-10T13:10:59;9.80;;;4.07;;
59846;SDS011;45728;48.788;2.302;2023-05-10T13:13:26;9.75;;;3.67;;
59846;SDS011;45728;48.788;2.302;2023-05-10T13:15:52;9.10;;;3.58;;
59846;SDS011;45728;48.788;2.302;2023-05-10T13:18:18;11.32;;;4.05;;
59846;SDS011;45728;48.788;2.302;2023-05-10T13:20:44;7.88;;;3.83;;
59846;SDS011;45728;48.788;2.302;2023-05-10T13:23:10;8.32;;;4.00;;
59846;SDS011;45728;48.788;2.302;2023-05-10T13:25:36;8.15;;;3.95;;
59846;SDS011;45728;48.788;2.302;2023-05-10T13:28:03;10.60;;;4.20;;
59846;SDS011;45728;48.788;2.302;2023-05-10T13:30:29;11.23;;;4.22;;
59846;SDS011;45728;48.788;2.302;2023-05-10T13:32:55;8.45;;;3.45;;
59846;SDS011;45728;48.788;2.302;2023-05-10T13:35:22;12.45;;;4.25;;
59846;SDS011;45728;48.788;2.302;2023-05-10T13:37:48;8.75;;;3.80;;
59846;SDS011;45728;48.788;2.302;2023-05-10T13:40:14;11.77;;;4.00;;
59846;SDS011;45728;48.788;2.302;2023-05-10T13:42:41;12.55;;;4.05;;
59846;SDS011;45728;48.788;2.302;2023-05-10T13:45:07;9.63;;;4.75;;
59846;SDS011;45728;48.788;2.302;2023-05-10T13:47:34;9.18;;;3.80;;
59846;SDS011;45728;48.788;2.302;2023-05-10T13:50:00;9.57;;;3.50;;
59846;SDS011;45728;48.788;2.302;2023-05-10T13:52:26;8.38;;;3.60;;
59846;SDS011;45728;48.788;2.302;2023-05-10T13:54:52;8.75;;;3.22;;
59846;SDS011;45728;48.788;2.302;2023-05-10T13:57:20;10.18;;;3.38;;
59846;SDS011;45728;48.788;2.302;2023-05-10T13:59:47;9.35;;;2.80;;
59846;SDS011;45728;48.788;2.302;2023-05-10T14:02:13;9.10;;;3.08;;
59846;SDS011;45728;48.788;2.302;2023-05-10T14:04:39;6.53;;;2.78;;
59846;SDS011;45728;48.788;2.302;2023-05-10T14:07:05;8.20;;;3.17;;
59846;SDS011;45728;48.788;2.302;2023-05-10T14:09:31;7.13;;;3.42;;
59846;SDS011;45728;48.788;2.302;2023-05-10T14:11:57;8.15;;;3.17;;
59846;SDS011;45728;48.788;2.302;2023-05-10T14:14:24;8.90;;;3.35;;
59846;SDS011;45728;48.788;2.302;2023-05-10T14:16:50;13.05;;;3.55;;
59846;SDS011;45728;48.788;2.302;2023-05-10T14:19:16;8.75;;;3.30;;
59846;SDS011;45728;48.788;2.302;2023-05-10T14:21:42;9.15;;;3.10;;
59846;SDS011;45728;48.788;2.302;2023-05-10T14:24:09;8.10;;;2.78;;
59846;SDS011;45728;48.788;2.302;2023-05-10T14:26:35;5.25;;;2.25;;
59846;SDS011;45728;48.788;2.302;2023-05-10T14:29:01;5.63;;;2.08;;
59846;SDS011;45728;48.788;2.302;2023-05-10T14:31:27;5.97;;;2.45;;
59846;SDS011;45728;48.788;2.302;2023-05-10T14:33:55;6.95;;;2.40;;
59846;SDS011;45728;48.788;2.302;2023-05-10T14:36:22;8.10;;;2.78;;
59846;SDS011;45728;48.788;2.302;2023-05-10T14:38:48;5.72;;;2.30;;
59846;SDS011;45728;48.788;2.302;2023-05-10T14:41:15;6.30;;;2.35;;
59846;SDS011;45728;48.788;2.302;2023-05-10T14:43:43;18.65;;;13.98;;
59846;SDS011;45728;48.788;2.302;2023-05-10T14:46:09;6.00;;;2.67;;
59846;SDS011;45728;48.788;2.302;2023-05-10T14:48:35;7.40;;;2.80;;
59846;SDS011;45728;48.788;2.302;2023-05-10T14:51:01;11.15;;;3.25;;
59846;SDS011;45728;48.788;2.302;2023-05-10T14:53:27;7.00;;;2.90;;
59846;SDS011;45728;48.788;2.302;2023-05-10T14:55:53;9.20;;;3.00;;
59846;SDS011;45728;48.788;2.302;2023-05-10T14:58:19;7.57;;;2.80;;
59846;SDS011;45728;48.788;2.302;2023-05-10T15:00:45;9.02;;;3.00;;
59846;SDS011;45728;48.788;2.302;2023-05-10T15:03:11;11.07;;;2.90;;
59846;SDS011;45728;48.788;2.302;2023-05-10T15:05:38;7.72;;;3.00;;
59846;SDS011;45728;48.788;2.302;2023-05-10T15:08:04;7.60;;;3.35;;
59846;SDS011;45728;48.788;2.302;2023-05-10T15:10:31;6.40;;;3.13;;
59846;SDS011;45728;48.788;2.302;2023-05-10T15:12:58;10.23;;;3.85;;
59846;SDS011;45728;48.788;2.302;2023-05-10T15:15:24;12.45;;;4.20;;
59846;SDS011;45728;48.788;2.302;2023-05-10T15:17:50;11.82;;;3.88;;
59846;SDS011;45728;48.788;2.302;2023-05-10T15:20:16;9.82;;;3.50;;
59846;SDS011;45728;48.788;2.302;2023-05-10T15:22:42;9.63;;;3.45;;
59846;SDS011;45728;48.788;2.302;2023-05-10T15:25:08;6.68;;;3.42;;
59846;SDS011;45728;48.788;2.302;2023-05-10T15:27:35;10.70;;;4.10;;
59846;SDS011;45728;48.788;2.302;2023-05-10T15:30:01;9.13;;;4.03;;
59846;SDS011;45728;48.788;2.302;2023-05-10T15:32:27;11.35;;;4.43;;
59846;SDS011;45728;48.788;2.302;2023-05-10T15:34:54;8.52;;;3.38;;
59846;SDS011;45728;48.788;2.302;2023-05-10T15:37:20;6.30;;;3.10;;
59846;SDS011;45728;48.788;2.302;2023-05-10T15:39:48;9.00;;;3.17;;
59846;SDS011;45728;48.788;2.302;2023-05-10T15:42:15;7.63;;;3.00;;
59846;SDS011;45728;48.788;2.302;2023-05-10T15:44:41;7.18;;;2.60;;
59846;SDS011;45728;48.788;2.302;2023-05-10T15:47:09;5.10;;;2.75;;
59846;SDS011;45728;48.788;2.302;2023-05-10T15:49:35;6.55;;;2.70;;
59846;SDS011;45728;48.788;2.302;2023-05-10T15:52:01;9.05;;;2.90;;
59846;SDS011;45728;48.788;2.302;2023-05-10T15:54:27;6.22;;;2.83;;
59846;SDS011;45728;48.788;2.302;2023-05-10T15:56:53;9.73;;;2.97;;
59846;SDS011;45728;48.788;2.302;2023-05-10T15:59:20;9.27;;;3.38;;
59846;SDS011;45728;48.788;2.302;2023-05-10T16:01:46;7.88;;;3.00;;
59846;SDS011;45728;48.788;2.302;2023-05-10T16:04:12;7.25;;;3.20;;
59846;SDS011;45728;48.788;2.302;2023-05-10T16:06:38;7.00;;;3.30;;
59846;SDS011;45728;48.788;2.302;2023-05-10T16:09:04;7.85;;;3.47;;
59846;SDS011;45728;48.788;2.302;2023-05-10T16:11:30;8.27;;;3.40;;
59846;SDS011;45728;48.788;2.302;2023-05-10T16:13:56;8.40;;;3.70;;
59846;SDS011;45728;48.788;2.302;2023-05-10T16:16:22;7.53;;;3.40;;
59846;SDS011;45728;48.788;2.302;2023-05-10T16:18:49;7.50;;;3.25;;
59846;SDS011;45728;48.788;2.302;2023-05-10T16:21:15;6.75;;;2.60;;
59846;SDS011;45728;48.788;2.302;2023-05-10T16:23:41;6.97;;;2.85;;
59846;SDS011;45728;48.788;2.302;2023-05-10T16:26:11;12.82;;;3.17;;
59846;SDS011;45728;48.788;2.302;2023-05-10T16:28:37;7.20;;;3.05;;
59846;SDS011;45728;48.788;2.302;2023-05-10T16:31:04;6.90;;;2.65;;
59846;SDS011;45728;48.788;2.302;2023-05-10T16:33:30;4.38;;;2.33;;